Grand Canyon, AZ

03:41 AM MST on December 10, 2016 (GMT -0700)
KAZGRAND3 | | Change Station

Elev 6991 ft 36.05 °N, 112.12 °W | Updated 10 seconds ago

Klart
Klart
32.3 °F
Feels Like 32 °F
N
0.0
Vind Växlande Vind from V/SV
Gusts 0.0 miles/tim

Idag
High -- | Low -- °F
--% Chance of Precip.
Yesterday
High -- | Low -- °F
Precip. -- tum
Lufttryck 30.22 tum
Sikt 10.0 miles
Molnigt Klart
Vindavkylning 32 °F
Daggpunkt 30 °F
Luftfuktighet 92%
Rainfall 0.00 tum
Snow Depth Not available.
7:28 AM 5:14 PM
Andra kvarteret, 82% visible
METAR KGCN 100954Z AUTO 00000KT 10SM CLR M06/M06 A3025 RMK AO2 SLP234 I1000 T10561061
Lufttryck 30.22 tum
Sikt 10.0 miles
Molnigt Klart
Vindavkylning 32 °F
Daggpunkt 30 °F
Luftfuktighet 92%
Rainfall 0.00 tum
Snow Depth Not available.
7:28 AM 5:14 PM
Andra kvarteret, 82% visible
METAR KGCN 100954Z AUTO 00000KT 10SM CLR M06/M06 A3025 RMK AO2 SLP234 I1000 T10561061

10-Day Weather Forecast

Almanac

Astronomi

Dec. 10, 2016 Rise Set
Actual Time
Civil Twilight
Nautical Twilight
Astronomical Twilight
Månen
Length Of Visible Light
Dagens längd
Tomorrow will be .
, % of the Moon is Illuminated

Today's Extremes

State Highs State Lows

Community

WunderPhotos

Upload Photos

1,956,536 photos uploaded!

WunderBlog® & News

Nearby

Air Quality

  Air Quality AQ Index Pollutant
Not available.

Snödjup

Station Depth Elevation

Earthquake Activity

Stad Distance Mag. Time & Date
Minimum magnitude displayed is 2.5.

Coastal Water Temperatures

Plats Temperatur

Stations

Nearby Weather Stations

Station Location Temp Vindavkylning Daggpunkt Luftfuktighet Vind Precip. Elev Uppdaterad Type
                   

Watches & Warnings

There are currently no watches in effect.